Del Rio/Laughlin AFB, Texas
Current Conditions -  °F | °C
As of 6:58 PM on Monday 22 Dec 2014 (Local Time) from KDLF Reporting Station
Clear Clear  
Wind Chill: 55°   Ceiling: Unl
Heat Index: 55°   Visibility: 10mi
Dew Point: 53°   Wind: 6mph
Humidity: 94%   Direction: 330°NNW
Pressure: 29.61"   Gusts: NA
Location:  29.36°N, 100.78°W
Report Text: KDLF 230058Z AUTO 33005KT 10SM CLR 13/12 A2961 RMK AO2 SLP023 T01250116 $
Loading
Personal Weather Stations






























Interactive Weather Map New forecast layout! Learn more

10-Day Weather Forecast

Advertisements
Track Severe Weather on mobile